sensor_id;sensor_type;location;lat;lon;timestamp;pressure;altitude;pressure_sealevel;temperature;humidity
63321;BME280;49449;48.800;9.534;2024-01-16T00:00:17;98000.66;;;-0.52;36.84
63321;BME280;49449;48.800;9.534;2024-01-16T00:02:45;97991.53;;;-0.87;37.54
63321;BME280;49449;48.800;9.534;2024-01-16T00:05:12;97989.25;;;-0.82;37.41
63321;BME280;49449;48.800;9.534;2024-01-16T00:07:42;97994.56;;;-0.76;37.19
63321;BME280;49449;48.800;9.534;2024-01-16T00:10:10;97993.34;;;-0.96;37.53
63321;BME280;49449;48.800;9.534;2024-01-16T00:12:42;97993.75;;;-1.65;39.09
63321;BME280;49449;48.800;9.534;2024-01-16T00:15:10;97986.72;;;-1.97;39.16
63321;BME280;49449;48.800;9.534;2024-01-16T00:17:40;97983.53;;;-1.91;39.44
63321;BME280;49449;48.800;9.534;2024-01-16T00:20:08;97983.81;;;-1.28;38.50
63321;BME280;49449;48.800;9.534;2024-01-16T00:22:37;97974.34;;;-0.88;39.21
63321;BME280;49449;48.800;9.534;2024-01-16T00:25:06;97981.84;;;-1.10;38.18
63321;BME280;49449;48.800;9.534;2024-01-16T00:27:34;97981.41;;;-1.30;37.88
63321;BME280;49449;48.800;9.534;2024-01-16T00:30:04;97987.72;;;-1.41;38.87
63321;BME280;49449;48.800;9.534;2024-01-16T00:32:33;97989.19;;;-1.30;38.10
63321;BME280;49449;48.800;9.534;2024-01-16T00:35:00;97988.00;;;-0.95;37.74
63321;BME280;49449;48.800;9.534;2024-01-16T00:37:36;97994.81;;;-1.18;38.23
63321;BME280;49449;48.800;9.534;2024-01-16T00:40:05;97998.88;;;-1.16;38.03
63321;BME280;49449;48.800;9.534;2024-01-16T00:42:35;98002.56;;;-0.94;37.74
63321;BME280;49449;48.800;9.534;2024-01-16T00:45:05;98003.88;;;-0.89;37.57
63321;BME280;49449;48.800;9.534;2024-01-16T00:47:33;97996.59;;;-0.94;37.98
63321;BME280;49449;48.800;9.534;2024-01-16T00:50:04;98009.56;;;-1.19;37.83
63321;BME280;49449;48.800;9.534;2024-01-16T00:52:32;98002.56;;;-0.85;37.33
63321;BME280;49449;48.800;9.534;2024-01-16T00:55:00;98011.16;;;-1.09;37.72
63321;BME280;49449;48.800;9.534;2024-01-16T00:57:27;98005.31;;;-0.79;37.68
63321;BME280;49449;48.800;9.534;2024-01-16T00:59:55;98002.97;;;-0.65;37.41
63321;BME280;49449;48.800;9.534;2024-01-16T01:02:24;97998.84;;;-1.07;37.36
63321;BME280;49449;48.800;9.534;2024-01-16T01:04:52;97998.19;;;-1.09;38.08
63321;BME280;49449;48.800;9.534;2024-01-16T01:07:20;97996.59;;;-1.02;37.64
63321;BME280;49449;48.800;9.534;2024-01-16T01:09:47;97997.56;;;-0.95;37.78
63321;BME280;49449;48.800;9.534;2024-01-16T01:12:15;97996.25;;;-1.07;37.77
63321;BME280;49449;48.800;9.534;2024-01-16T01:14:43;97986.72;;;-1.23;38.12
63321;BME280;49449;48.800;9.534;2024-01-16T01:17:11;97989.59;;;-0.85;37.84
63321;BME280;49449;48.800;9.534;2024-01-16T01:19:40;97993.03;;;-1.09;37.74
63321;BME280;49449;48.800;9.534;2024-01-16T01:22:08;98004.22;;;-1.34;38.54
63321;BME280;49449;48.800;9.534;2024-01-16T01:24:38;98002.16;;;-1.38;38.16
63321;BME280;49449;48.800;9.534;2024-01-16T01:27:08;98004.41;;;-1.35;38.27
63321;BME280;49449;48.800;9.534;2024-01-16T01:29:36;98008.44;;;-1.33;37.98
63321;BME280;49449;48.800;9.534;2024-01-16T01:32:04;98014.75;;;-1.02;38.11
63321;BME280;49449;48.800;9.534;2024-01-16T01:34:32;98020.25;;;-0.89;37.66
63321;BME280;49449;48.800;9.534;2024-01-16T01:37:02;98029.50;;;-0.95;37.50
63321;BME280;49449;48.800;9.534;2024-01-16T01:39:30;98034.69;;;-0.95;37.50
63321;BME280;49449;48.800;9.534;2024-01-16T01:41:58;98038.72;;;-1.08;37.61
63321;BME280;49449;48.800;9.534;2024-01-16T01:44:26;98032.41;;;-1.06;37.93
63321;BME280;49449;48.800;9.534;2024-01-16T01:46:54;98033.19;;;-1.05;37.93
63321;BME280;49449;48.800;9.534;2024-01-16T01:49:24;98038.09;;;-1.02;37.91
63321;BME280;49449;48.800;9.534;2024-01-16T01:51:52;98031.28;;;-1.12;37.69
63321;BME280;49449;48.800;9.534;2024-01-16T01:54:23;98031.59;;;-1.06;37.76
63321;BME280;49449;48.800;9.534;2024-01-16T01:56:52;98037.25;;;-1.11;37.64
63321;BME280;49449;48.800;9.534;2024-01-16T01:59:21;98034.81;;;-1.13;37.85
63321;BME280;49449;48.800;9.534;2024-01-16T02:01:51;98039.53;;;-1.16;38.02
63321;BME280;49449;48.800;9.534;2024-01-16T02:04:20;98035.50;;;-1.11;38.17
63321;BME280;49449;48.800;9.534;2024-01-16T02:06:48;98042.81;;;-1.39;37.98
63321;BME280;49449;48.800;9.534;2024-01-16T02:09:16;98048.81;;;-1.30;38.37
63321;BME280;49449;48.800;9.534;2024-01-16T02:11:45;98050.84;;;-1.91;39.04
63321;BME280;49449;48.800;9.534;2024-01-16T02:14:13;98047.97;;;-1.72;39.39
63321;BME280;49449;48.800;9.534;2024-01-16T02:16:42;98045.06;;;-1.69;38.57
63321;BME280;49449;48.800;9.534;2024-01-16T02:19:11;98050.38;;;-1.78;38.55
63321;BME280;49449;48.800;9.534;2024-01-16T02:21:41;98047.97;;;-2.39;40.63
63321;BME280;49449;48.800;9.534;2024-01-16T02:24:15;98042.63;;;-2.29;40.61
63321;BME280;49449;48.800;9.534;2024-01-16T02:26:47;98044.88;;;-2.34;39.89
63321;BME280;49449;48.800;9.534;2024-01-16T02:29:15;98046.06;;;-2.63;40.67
63321;BME280;49449;48.800;9.534;2024-01-16T02:31:43;98035.16;;;-2.40;40.70
63321;BME280;49449;48.800;9.534;2024-01-16T02:34:11;98042.69;;;-2.90;41.30
63321;BME280;49449;48.800;9.534;2024-01-16T02:36:40;98052.66;;;-2.69;40.84
63321;BME280;49449;48.800;9.534;2024-01-16T02:39:07;98050.03;;;-2.77;41.35
63321;BME280;49449;48.800;9.534;2024-01-16T02:41:37;98044.97;;;-2.60;41.47
63321;BME280;49449;48.800;9.534;2024-01-16T02:44:05;98037.16;;;-2.26;40.23
63321;BME280;49449;48.800;9.534;2024-01-16T02:46:35;98043.47;;;-2.29;40.21
63321;BME280;49449;48.800;9.534;2024-01-16T02:49:05;98038.38;;;-1.96;39.61
63321;BME280;49449;48.800;9.534;2024-01-16T02:51:34;98039.13;;;-2.12;39.80
63321;BME280;49449;48.800;9.534;2024-01-16T02:54:01;98037.28;;;-1.77;39.50
63321;BME280;49449;48.800;9.534;2024-01-16T02:56:29;98037.44;;;-1.70;38.94
63321;BME280;49449;48.800;9.534;2024-01-16T02:58:58;98032.41;;;-1.72;39.00
63321;BME280;49449;48.800;9.534;2024-01-16T03:01:29;98036.34;;;-1.51;38.84
63321;BME280;49449;48.800;9.534;2024-01-16T03:03:56;98032.59;;;-1.24;38.61
63321;BME280;49449;48.800;9.534;2024-01-16T03:06:25;98035.50;;;-1.02;37.80
63321;BME280;49449;48.800;9.534;2024-01-16T03:08:56;98038.56;;;-1.07;37.95
63321;BME280;49449;48.800;9.534;2024-01-16T03:11:24;98037.13;;;-1.01;37.64
63321;BME280;49449;48.800;9.534;2024-01-16T03:13:52;98040.84;;;-1.53;38.49
63321;BME280;49449;48.800;9.534;2024-01-16T03:16:21;98040.34;;;-1.73;38.94
63321;BME280;49449;48.800;9.534;2024-01-16T03:18:49;98040.50;;;-1.34;38.35
63321;BME280;49449;48.800;9.534;2024-01-16T03:21:17;98043.44;;;-1.20;38.48
63321;BME280;49449;48.800;9.534;2024-01-16T03:23:45;98047.78;;;-0.88;37.63
63321;BME280;49449;48.800;9.534;2024-01-16T03:26:13;98045.47;;;-0.66;37.44
63321;BME280;49449;48.800;9.534;2024-01-16T03:28:41;98041.03;;;-0.49;37.33
63321;BME280;49449;48.800;9.534;2024-01-16T03:31:09;98044.56;;;-0.42;37.00
63321;BME280;49449;48.800;9.534;2024-01-16T03:33:38;98044.50;;;-0.26;37.26
63321;BME280;49449;48.800;9.534;2024-01-16T03:36:09;98045.28;;;-0.17;36.76
63321;BME280;49449;48.800;9.534;2024-01-16T03:38:36;98040.19;;;-0.10;36.94
63321;BME280;49449;48.800;9.534;2024-01-16T03:41:04;98037.72;;;-0.04;36.39
63321;BME280;49449;48.800;9.534;2024-01-16T03:43:33;98046.53;;;-0.05;36.88
63321;BME280;49449;48.800;9.534;2024-01-16T03:46:02;98050.22;;;0.01;36.74
63321;BME280;49449;48.800;9.534;2024-01-16T03:48:29;98051.31;;;0.07;36.34
63321;BME280;49449;48.800;9.534;2024-01-16T03:50:59;98050.06;;;0.02;36.36
63321;BME280;49449;48.800;9.534;2024-01-16T03:53:26;98050.38;;;-0.01;36.35
63321;BME280;49449;48.800;9.534;2024-01-16T03:55:54;98036.94;;;-0.04;36.48
63321;BME280;49449;48.800;9.534;2024-01-16T03:58:22;98037.72;;;-0.04;36.15
63321;BME280;49449;48.800;9.534;2024-01-16T04:00:50;98042.00;;;-0.11;36.59
63321;BME280;49449;48.800;9.534;2024-01-16T04:03:19;98039.69;;;-0.06;36.22
63321;BME280;49449;48.800;9.534;2024-01-16T04:05:47;98037.56;;;-0.33;36.03
63321;BME280;49449;48.800;9.534;2024-01-16T04:08:17;98034.63;;;-0.78;36.08
63321;BME280;49449;48.800;9.534;2024-01-16T04:10:45;98033.69;;;-0.77;36.33
63321;BME280;49449;48.800;9.534;2024-01-16T04:13:12;98035.13;;;-0.75;35.99
63321;BME280;49449;48.800;9.534;2024-01-16T04:15:40;98029.78;;;-0.81;35.94
63321;BME280;49449;48.800;9.534;2024-01-16T04:18:08;98035.34;;;-1.01;36.38
63321;BME280;49449;48.800;9.534;2024-01-16T04:20:44;98037.75;;;-1.07;36.72
63321;BME280;49449;48.800;9.534;2024-01-16T04:23:12;98033.38;;;-1.15;36.75
63321;BME280;49449;48.800;9.534;2024-01-16T04:25:41;98037.94;;;-1.17;36.95
63321;BME280;49449;48.800;9.534;2024-01-16T04:28:09;98037.59;;;-1.14;36.62
63321;BME280;49449;48.800;9.534;2024-01-16T04:30:37;98029.16;;;-1.16;36.57
63321;BME280;49449;48.800;9.534;2024-01-16T04:33:05;98038.72;;;-0.92;36.54
63321;BME280;49449;48.800;9.534;2024-01-16T04:35:32;98032.88;;;-0.86;36.05
63321;BME280;49449;48.800;9.534;2024-01-16T04:38:00;98036.13;;;-0.92;36.51
63321;BME280;49449;48.800;9.534;2024-01-16T04:40:29;98038.34;;;-0.72;36.69
63321;BME280;49449;48.800;9.534;2024-01-16T04:42:58;98039.66;;;-0.77;35.98
63321;BME280;49449;48.800;9.534;2024-01-16T04:45:27;98046.81;;;-0.79;35.54
63321;BME280;49449;48.800;9.534;2024-01-16T04:47:54;98047.28;;;-0.75;36.05
63321;BME280;49449;48.800;9.534;2024-01-16T04:50:22;98048.75;;;-0.81;36.40
63321;BME280;49449;48.800;9.534;2024-01-16T04:52:57;98054.69;;;-0.64;36.82
63321;BME280;49449;48.800;9.534;2024-01-16T04:55:27;98060.69;;;-0.55;37.00
63321;BME280;49449;48.800;9.534;2024-01-16T04:57:56;98064.22;;;-0.48;37.08
63321;BME280;49449;48.800;9.534;2024-01-16T05:00:25;98057.22;;;-0.39;37.32
63321;BME280;49449;48.800;9.534;2024-01-16T05:02:53;98060.91;;;-0.33;37.08
63321;BME280;49449;48.800;9.534;2024-01-16T05:05:24;98058.47;;;-0.35;36.84
63321;BME280;49449;48.800;9.534;2024-01-16T05:07:56;98054.75;;;-0.32;36.81
63321;BME280;49449;48.800;9.534;2024-01-16T05:10:24;98057.19;;;-0.31;37.00
63321;BME280;49449;48.800;9.534;2024-01-16T05:12:52;98048.25;;;-0.28;36.96
63321;BME280;49449;48.800;9.534;2024-01-16T05:15:20;98042.25;;;-0.29;36.85
63321;BME280;49449;48.800;9.534;2024-01-16T05:17:49;98042.91;;;-0.35;36.97
63321;BME280;49449;48.800;9.534;2024-01-16T05:20:17;98034.00;;;-0.32;37.16
63321;BME280;49449;48.800;9.534;2024-01-16T05:22:45;98031.41;;;-0.32;36.52
63321;BME280;49449;48.800;9.534;2024-01-16T05:25:12;98026.03;;;-0.31;36.32
63321;BME280;49449;48.800;9.534;2024-01-16T05:27:40;98031.56;;;-0.34;36.27
63321;BME280;49449;48.800;9.534;2024-01-16T05:30:09;98022.78;;;-0.81;36.75
63321;BME280;49449;48.800;9.534;2024-01-16T05:32:39;98018.63;;;-0.90;36.98
63321;BME280;49449;48.800;9.534;2024-01-16T05:35:09;98020.88;;;-0.79;37.08
63321;BME280;49449;48.800;9.534;2024-01-16T05:37:37;98017.25;;;-0.69;36.72
63321;BME280;49449;48.800;9.534;2024-01-16T05:40:06;98014.81;;;-0.63;36.75
63321;BME280;49449;48.800;9.534;2024-01-16T05:42:34;98016.59;;;-0.63;36.56
63321;BME280;49449;48.800;9.534;2024-01-16T05:45:03;98020.81;;;-0.62;37.13
63321;BME280;49449;48.800;9.534;2024-01-16T05:47:31;98018.19;;;-0.54;36.97
63321;BME280;49449;48.800;9.534;2024-01-16T05:49:58;98017.50;;;-0.48;36.80
63321;BME280;49449;48.800;9.534;2024-01-16T05:52:28;98018.97;;;-0.45;36.85
63321;BME280;49449;48.800;9.534;2024-01-16T05:54:55;98019.59;;;-0.43;36.54
63321;BME280;49449;48.800;9.534;2024-01-16T05:57:24;98009.09;;;-0.50;36.61
63321;BME280;49449;48.800;9.534;2024-01-16T05:59:52;98014.09;;;-0.48;36.04
63321;BME280;49449;48.800;9.534;2024-01-16T06:02:20;98010.25;;;-0.61;36.26
63321;BME280;49449;48.800;9.534;2024-01-16T06:04:48;98003.41;;;-0.53;36.40
63321;BME280;49449;48.800;9.534;2024-01-16T06:07:16;98013.63;;;-0.52;37.08
63321;BME280;49449;48.800;9.534;2024-01-16T06:09:45;98008.75;;;-0.47;36.88
63321;BME280;49449;48.800;9.534;2024-01-16T06:12:13;98016.38;;;-0.45;36.82
63321;BME280;49449;48.800;9.534;2024-01-16T06:14:41;98004.19;;;-0.45;36.83
63321;BME280;49449;48.800;9.534;2024-01-16T06:17:09;98003.88;;;-0.42;37.00
63321;BME280;49449;48.800;9.534;2024-01-16T06:19:37;98006.47;;;-0.42;37.16
63321;BME280;49449;48.800;9.534;2024-01-16T06:22:05;98005.31;;;-0.39;37.06
63321;BME280;49449;48.800;9.534;2024-01-16T06:24:35;98006.72;;;-0.37;36.98
63321;BME280;49449;48.800;9.534;2024-01-16T06:27:05;97999.63;;;-0.34;37.10
63321;BME280;49449;48.800;9.534;2024-01-16T06:29:33;98015.19;;;-0.34;36.95
63321;BME280;49449;48.800;9.534;2024-01-16T06:32:01;98014.34;;;-0.35;36.81
63321;BME280;49449;48.800;9.534;2024-01-16T06:34:29;98012.63;;;-0.51;36.75
63321;BME280;49449;48.800;9.534;2024-01-16T06:36:58;98009.88;;;-0.49;36.92
63321;BME280;49449;48.800;9.534;2024-01-16T06:39:26;98010.72;;;-0.49;36.90
63321;BME280;49449;48.800;9.534;2024-01-16T06:41:53;97999.81;;;-0.44;36.91
63321;BME280;49449;48.800;9.534;2024-01-16T06:44:23;97998.84;;;-0.43;37.00
63321;BME280;49449;48.800;9.534;2024-01-16T06:46:50;98003.66;;;-0.40;36.99
63321;BME280;49449;48.800;9.534;2024-01-16T06:49:18;98001.75;;;-0.38;37.36
63321;BME280;49449;48.800;9.534;2024-01-16T06:51:46;98005.13;;;-0.38;37.16
63321;BME280;49449;48.800;9.534;2024-01-16T06:54:14;98001.38;;;-0.35;37.58
63321;BME280;49449;48.800;9.534;2024-01-16T06:56:41;98009.00;;;-0.33;37.59
63321;BME280;49449;48.800;9.534;2024-01-16T06:59:09;98005.44;;;-0.32;37.39
63321;BME280;49449;48.800;9.534;2024-01-16T07:01:38;98013.84;;;-0.30;37.14
63321;BME280;49449;48.800;9.534;2024-01-16T07:04:07;98010.28;;;-0.29;37.30
63321;BME280;49449;48.800;9.534;2024-01-16T07:06:35;98016.28;;;-0.29;37.28
63321;BME280;49449;48.800;9.534;2024-01-16T07:09:03;98015.13;;;-0.26;38.04
63321;BME280;49449;48.800;9.534;2024-01-16T07:11:32;98015.50;;;-0.29;37.43
63321;BME280;49449;48.800;9.534;2024-01-16T07:14:02;98017.41;;;-0.31;37.84
63321;BME280;49449;48.800;9.534;2024-01-16T07:16:30;98024.88;;;-0.28;37.61
63321;BME280;49449;48.800;9.534;2024-01-16T07:18:59;98014.16;;;-0.25;37.82
63321;BME280;49449;48.800;9.534;2024-01-16T07:21:27;98011.91;;;-0.28;37.94
63321;BME280;49449;48.800;9.534;2024-01-16T07:23:55;98020.31;;;-0.26;37.32
63321;BME280;49449;48.800;9.534;2024-01-16T07:26:23;98023.75;;;-0.26;37.54
63321;BME280;49449;48.800;9.534;2024-01-16T07:28:51;98026.81;;;-0.22;38.01
63321;BME280;49449;48.800;9.534;2024-01-16T07:31:19;98025.66;;;-0.20;37.51
63321;BME280;49449;48.800;9.534;2024-01-16T07:33:46;98027.78;;;-0.23;37.63
63321;BME280;49449;48.800;9.534;2024-01-16T07:36:16;98017.22;;;-0.22;37.33
63321;BME280;49449;48.800;9.534;2024-01-16T07:38:43;98019.19;;;-0.24;40.84
63321;BME280;49449;48.800;9.534;2024-01-16T07:41:11;98018.19;;;-0.23;42.27
63321;BME280;49449;48.800;9.534;2024-01-16T07:43:39;98022.41;;;-0.22;40.64
63321;BME280;49449;48.800;9.534;2024-01-16T07:46:07;98025.47;;;-0.18;38.59
63321;BME280;49449;48.800;9.534;2024-01-16T07:48:34;98025.16;;;-0.15;38.04
63321;BME280;49449;48.800;9.534;2024-01-16T07:51:02;98023.34;;;-0.14;38.33
63321;BME280;49449;48.800;9.534;2024-01-16T07:53:32;98022.38;;;-0.13;37.72
63321;BME280;49449;48.800;9.534;2024-01-16T07:55:59;98024.16;;;-0.14;37.86
63321;BME280;49449;48.800;9.534;2024-01-16T07:58:27;98021.56;;;-0.14;37.69
63321;BME280;49449;48.800;9.534;2024-01-16T08:00:55;98023.66;;;-0.09;37.44
63321;BME280;49449;48.800;9.534;2024-01-16T08:03:23;98028.03;;;-0.10;37.44
63321;BME280;49449;48.800;9.534;2024-01-16T08:05:52;98020.56;;;-0.05;37.04
63321;BME280;49449;48.800;9.534;2024-01-16T08:08:19;98017.97;;;-0.05;36.98
63321;BME280;49449;48.800;9.534;2024-01-16T08:10:49;98022.78;;;-0.02;37.30
63321;BME280;49449;48.800;9.534;2024-01-16T08:13:17;98029.91;;;0.05;36.78
63321;BME280;49449;48.800;9.534;2024-01-16T08:15:45;98023.72;;;0.06;37.33
63321;BME280;49449;48.800;9.534;2024-01-16T08:18:12;98025.97;;;0.09;37.58
63321;BME280;49449;48.800;9.534;2024-01-16T08:20:42;98026.28;;;0.14;37.78
63321;BME280;49449;48.800;9.534;2024-01-16T08:23:10;98025.59;;;0.20;37.34
63321;BME280;49449;48.800;9.534;2024-01-16T08:25:38;98029.13;;;0.27;37.34
63321;BME280;49449;48.800;9.534;2024-01-16T08:28:07;98022.31;;;0.41;36.95
63321;BME280;49449;48.800;9.534;2024-01-16T08:30:37;98026.38;;;0.44;38.06
63321;BME280;49449;48.800;9.534;2024-01-16T08:33:04;98022.72;;;0.53;37.41
63321;BME280;49449;48.800;9.534;2024-01-16T08:35:32;98027.03;;;0.60;37.56
63321;BME280;49449;48.800;9.534;2024-01-16T08:38:00;98024.66;;;0.59;38.58
63321;BME280;49449;48.800;9.534;2024-01-16T08:40:28;98031.78;;;0.57;40.32
63321;BME280;49449;48.800;9.534;2024-01-16T08:42:56;98020.72;;;0.63;37.56
63321;BME280;49449;48.800;9.534;2024-01-16T08:45:26;98030.03;;;0.57;37.96
63321;BME280;49449;48.800;9.534;2024-01-16T08:47:53;98033.81;;;0.70;39.85
63321;BME280;49449;48.800;9.534;2024-01-16T08:50:21;98026.19;;;0.83;38.16
63321;BME280;49449;48.800;9.534;2024-01-16T08:52:49;98022.28;;;0.87;39.07
63321;BME280;49449;48.800;9.534;2024-01-16T08:55:17;98024.16;;;0.93;37.58
63321;BME280;49449;48.800;9.534;2024-01-16T08:57:46;98020.41;;;0.96;36.28
63321;BME280;49449;48.800;9.534;2024-01-16T09:00:17;98021.03;;;0.98;37.94
63321;BME280;49449;48.800;9.534;2024-01-16T09:02:46;98025.41;;;0.97;38.34
63321;BME280;49449;48.800;9.534;2024-01-16T09:05:15;98034.06;;;0.98;39.29
63321;BME280;49449;48.800;9.534;2024-01-16T09:07:43;98028.28;;;1.03;39.45
63321;BME280;49449;48.800;9.534;2024-01-16T09:10:10;98030.38;;;1.07;39.63
63321;BME280;49449;48.800;9.534;2024-01-16T09:12:38;98028.84;;;1.13;37.47
63321;BME280;49449;48.800;9.534;2024-01-16T09:15:07;98037.94;;;1.17;37.08
63321;BME280;49449;48.800;9.534;2024-01-16T09:17:36;98041.59;;;1.23;36.56
63321;BME280;49449;48.800;9.534;2024-01-16T09:20:06;98043.03;;;1.25;36.11
63321;BME280;49449;48.800;9.534;2024-01-16T09:22:34;98037.47;;;1.28;35.32
63321;BME280;49449;48.800;9.534;2024-01-16T09:25:02;98033.88;;;1.29;34.82
63321;BME280;49449;48.800;9.534;2024-01-16T09:27:32;98041.31;;;1.32;35.12
63321;BME280;49449;48.800;9.534;2024-01-16T09:29:59;98046.97;;;1.36;34.63
63321;BME280;49449;48.800;9.534;2024-01-16T09:32:27;98047.59;;;1.38;34.56
63321;BME280;49449;48.800;9.534;2024-01-16T09:34:55;98042.69;;;1.43;34.65
63321;BME280;49449;48.800;9.534;2024-01-16T09:37:26;98046.13;;;1.44;34.15
63321;BME280;49449;48.800;9.534;2024-01-16T09:39:54;98043.13;;;1.47;34.18
63321;BME280;49449;48.800;9.534;2024-01-16T09:42:22;98044.78;;;1.48;34.23
63321;BME280;49449;48.800;9.534;2024-01-16T09:44:52;98050.25;;;1.53;33.74
63321;BME280;49449;48.800;9.534;2024-01-16T09:47:19;98041.44;;;1.54;34.27
63321;BME280;49449;48.800;9.534;2024-01-16T09:49:47;98045.47;;;1.57;34.14
63321;BME280;49449;48.800;9.534;2024-01-16T09:52:15;98031.72;;;1.63;33.64
63321;BME280;49449;48.800;9.534;2024-01-16T09:54:44;98036.84;;;1.71;33.38
63321;BME280;49449;48.800;9.534;2024-01-16T09:57:12;98040.69;;;1.75;33.21
63321;BME280;49449;48.800;9.534;2024-01-16T09:59:41;98042.03;;;1.86;33.46
63321;BME280;49449;48.800;9.534;2024-01-16T10:02:10;98042.16;;;1.99;33.20
63321;BME280;49449;48.800;9.534;2024-01-16T10:04:39;98042.53;;;1.96;32.24
63321;BME280;49449;48.800;9.534;2024-01-16T10:07:10;98040.94;;;1.95;32.73
63321;BME280;49449;48.800;9.534;2024-01-16T10:09:39;98041.81;;;2.02;32.70
63321;BME280;49449;48.800;9.534;2024-01-16T10:12:08;98046.28;;;2.08;33.58
63321;BME280;49449;48.800;9.534;2024-01-16T10:14:38;98043.38;;;2.18;32.64
63321;BME280;49449;48.800;9.534;2024-01-16T10:17:07;98045.13;;;2.33;32.73
63321;BME280;49449;48.800;9.534;2024-01-16T10:19:47;98037.88;;;2.49;32.05
63321;BME280;49449;48.800;9.534;2024-01-16T10:22:19;98025.09;;;2.61;32.04
63321;BME280;49449;48.800;9.534;2024-01-16T10:24:50;98021.41;;;2.71;31.99
63321;BME280;49449;48.800;9.534;2024-01-16T10:27:19;98016.44;;;2.82;31.90
63321;BME280;49449;48.800;9.534;2024-01-16T10:29:55;98009.88;;;2.86;31.65
63321;BME280;49449;48.800;9.534;2024-01-16T10:32:27;98012.25;;;2.88;32.01
63321;BME280;49449;48.800;9.534;2024-01-16T10:35:06;98000.47;;;2.92;31.50
63321;BME280;49449;48.800;9.534;2024-01-16T10:37:41;97999.88;;;2.97;31.44
63321;BME280;49449;48.800;9.534;2024-01-16T10:40:10;98004.09;;;2.98;31.53
63321;BME280;49449;48.800;9.534;2024-01-16T10:42:39;97994.03;;;2.95;32.09
63321;BME280;49449;48.800;9.534;2024-01-16T10:45:07;97992.03;;;2.90;30.79
63321;BME280;49449;48.800;9.534;2024-01-16T10:47:36;97996.81;;;2.86;31.49
63321;BME280;49449;48.800;9.534;2024-01-16T10:50:05;97992.59;;;2.85;31.68
63321;BME280;49449;48.800;9.534;2024-01-16T10:52:38;97984.75;;;2.85;31.19
63321;BME280;49449;48.800;9.534;2024-01-16T10:55:09;97993.63;;;2.91;31.71
63321;BME280;49449;48.800;9.534;2024-01-16T10:57:41;97991.25;;;2.96;31.23
63321;BME280;49449;48.800;9.534;2024-01-16T11:00:12;97994.50;;;3.05;31.31
63321;BME280;49449;48.800;9.534;2024-01-16T11:02:43;97986.97;;;3.17;30.93
63321;BME280;49449;48.800;9.534;2024-01-16T11:05:17;97985.59;;;3.28;30.45
63321;BME280;49449;48.800;9.534;2024-01-16T11:07:46;97989.53;;;3.45;30.57
63321;BME280;49449;48.800;9.534;2024-01-16T11:10:14;97987.97;;;3.64;30.48
63321;BME280;49449;48.800;9.534;2024-01-16T11:12:45;97990.06;;;3.82;30.53
63321;BME280;49449;48.800;9.534;2024-01-16T11:15:14;97985.88;;;4.08;30.66
63321;BME280;49449;48.800;9.534;2024-01-16T11:17:44;97973.03;;;4.39;30.69
63321;BME280;49449;48.800;9.534;2024-01-16T11:20:12;97967.22;;;4.71;30.38
63321;BME280;49449;48.800;9.534;2024-01-16T11:22:49;97953.31;;;4.97;29.20
63321;BME280;49449;48.800;9.534;2024-01-16T11:25:18;97943.34;;;5.19;28.91
63321;BME280;49449;48.800;9.534;2024-01-16T11:27:50;97941.88;;;5.37;28.70
63321;BME280;49449;48.800;9.534;2024-01-16T11:30:30;97928.75;;;5.50;28.50
63321;BME280;49449;48.800;9.534;2024-01-16T11:32:59;97927.03;;;5.69;27.42
63321;BME280;49449;48.800;9.534;2024-01-16T11:35:32;97922.09;;;5.79;27.45
63321;BME280;49449;48.800;9.534;2024-01-16T11:38:04;97914.41;;;5.84;27.14
63321;BME280;49449;48.800;9.534;2024-01-16T11:40:32;97912.94;;;5.95;27.63
63321;BME280;49449;48.800;9.534;2024-01-16T11:43:37;97907.22;;;6.05;26.30
63321;BME280;49449;48.800;9.534;2024-01-16T11:46:05;97905.34;;;6.12;25.64
63321;BME280;49449;48.800;9.534;2024-01-16T11:48:34;97904.28;;;6.20;25.64
63321;BME280;49449;48.800;9.534;2024-01-16T11:51:22;97897.22;;;6.20;25.89
63321;BME280;49449;48.800;9.534;2024-01-16T11:53:50;97893.53;;;6.28;25.59
63321;BME280;49449;48.800;9.534;2024-01-16T11:59:57;97881.50;;;6.45;26.99
63321;BME280;49449;48.800;9.534;2024-01-16T12:02:31;97868.91;;;6.54;26.19
63321;BME280;49449;48.800;9.534;2024-01-16T12:05:01;97864.97;;;6.63;25.52
63321;BME280;49449;48.800;9.534;2024-01-16T12:07:43;97864.47;;;6.73;25.66
63321;BME280;49449;48.800;9.534;2024-01-16T12:10:11;97853.88;;;6.80;24.94
63321;BME280;49449;48.800;9.534;2024-01-16T12:12:39;97855.06;;;6.84;24.28
63321;BME280;49449;48.800;9.534;2024-01-16T12:15:14;97853.38;;;6.90;24.29
63321;BME280;49449;48.800;9.534;2024-01-16T12:17:56;97858.13;;;6.99;23.52
63321;BME280;49449;48.800;9.534;2024-01-16T12:20:26;97865.09;;;7.06;23.13
63321;BME280;49449;48.800;9.534;2024-01-16T12:22:57;97859.19;;;7.10;23.34
63321;BME280;49449;48.800;9.534;2024-01-16T12:25:25;97848.25;;;6.76;22.39
63321;BME280;49449;48.800;9.534;2024-01-16T12:27:55;97846.78;;;6.43;22.62
63321;BME280;49449;48.800;9.534;2024-01-16T12:30:25;97840.31;;;6.46;23.06
63321;BME280;49449;48.800;9.534;2024-01-16T12:33:08;97831.78;;;6.51;24.02
63321;BME280;49449;48.800;9.534;2024-01-16T12:35:37;97825.06;;;6.55;23.64
63321;BME280;49449;48.800;9.534;2024-01-16T12:38:07;97820.63;;;6.55;23.22
63321;BME280;49449;48.800;9.534;2024-01-16T12:40:36;97809.47;;;6.60;23.63
63321;BME280;49449;48.800;9.534;2024-01-16T12:43:05;97813.19;;;6.52;23.81
63321;BME280;49449;48.800;9.534;2024-01-16T12:45:35;97818.28;;;6.47;23.97
63321;BME280;49449;48.800;9.534;2024-01-16T12:48:04;97813.13;;;6.40;23.75
63321;BME280;49449;48.800;9.534;2024-01-16T12:50:32;97803.94;;;6.31;23.81
63321;BME280;49449;48.800;9.534;2024-01-16T12:53:02;97810.66;;;6.20;23.76
63321;BME280;49449;48.800;9.534;2024-01-16T12:55:32;97809.09;;;6.13;25.04
63321;BME280;49449;48.800;9.534;2024-01-16T12:58:16;97813.81;;;6.04;25.12
63321;BME280;49449;48.800;9.534;2024-01-16T13:00:46;97806.84;;;5.98;26.74
63321;BME280;49449;48.800;9.534;2024-01-16T13:03:17;97806.03;;;5.97;24.52
63321;BME280;49449;48.800;9.534;2024-01-16T13:05:54;97808.31;;;6.12;24.96
63321;BME280;49449;48.800;9.534;2024-01-16T13:08:22;97804.16;;;6.23;24.23
63321;BME280;49449;48.800;9.534;2024-01-16T13:11:04;97805.34;;;6.27;24.38
63321;BME280;49449;48.800;9.534;2024-01-16T13:13:33;97792.56;;;6.37;24.54
63321;BME280;49449;48.800;9.534;2024-01-16T13:16:04;97786.59;;;6.49;24.93
63321;BME280;49449;48.800;9.534;2024-01-16T13:18:33;97784.16;;;6.65;25.27